createdAt,value
2024-05-09T00:00:38.968Z,0.00
2024-05-09T00:01:32.821Z,0.00
2024-05-09T00:02:32.898Z,0.00
2024-05-09T00:03:32.792Z,0.00
2024-05-09T00:04:32.897Z,0.00
2024-05-09T00:05:32.884Z,0.00
2024-05-09T00:06:32.778Z,0.00
2024-05-09T00:07:32.794Z,0.00
2024-05-09T00:08:32.851Z,0.00
2024-05-09T00:09:32.796Z,0.00
2024-05-09T00:10:36.240Z,0.00
2024-05-09T00:11:32.881Z,0.00
2024-05-09T00:12:32.788Z,0.00
2024-05-09T00:13:32.775Z,0.00
2024-05-09T00:14:32.849Z,0.00
2024-05-09T00:15:32.760Z,0.00
2024-05-09T00:16:32.753Z,0.00
2024-05-09T00:17:32.909Z,0.00
2024-05-09T00:18:32.830Z,0.00
2024-05-09T00:19:32.832Z,0.00
2024-05-09T00:20:38.037Z,0.00
2024-05-09T00:21:32.747Z,0.00
2024-05-09T00:22:32.738Z,0.00
2024-05-09T00:23:33.024Z,0.00
2024-05-09T00:24:32.753Z,0.00
2024-05-09T00:25:32.729Z,0.00
2024-05-09T00:26:32.844Z,0.00
2024-05-09T00:27:32.720Z,0.00
2024-05-09T00:28:32.723Z,0.00
2024-05-09T00:29:32.851Z,0.00
2024-05-09T00:30:35.450Z,0.00
2024-05-09T00:31:32.713Z,0.00
2024-05-09T00:32:32.892Z,0.00
2024-05-09T00:33:32.827Z,0.00
2024-05-09T00:34:32.734Z,0.00
2024-05-09T00:35:32.747Z,0.00
2024-05-09T00:36:32.702Z,0.00
2024-05-09T00:37:32.700Z,0.00
2024-05-09T00:38:32.855Z,0.00
2024-05-09T00:39:32.687Z,0.00
2024-05-09T00:40:38.731Z,0.00
2024-05-09T00:41:32.736Z,0.00
2024-05-09T00:42:32.680Z,0.00
2024-05-09T00:43:32.685Z,0.00
2024-05-09T00:44:32.731Z,0.00
2024-05-09T00:45:32.677Z,0.00
2024-05-09T00:46:32.674Z,0.00
2024-05-09T00:47:32.798Z,0.00
2024-05-09T00:48:32.776Z,0.00
2024-05-09T00:49:32.733Z,0.00
2024-05-09T00:51:32.652Z,0.00
2024-05-09T00:52:32.650Z,0.00
2024-05-09T00:53:32.747Z,0.00
2024-05-09T00:54:32.643Z,0.00
2024-05-09T00:55:32.653Z,0.00
2024-05-09T00:56:32.710Z,0.00
2024-05-09T00:57:32.635Z,0.00
2024-05-09T00:58:32.637Z,0.00
2024-05-09T00:59:32.676Z,0.00
2024-05-09T01:00:38.661Z,0.00
2024-05-09T01:01:32.695Z,0.00
2024-05-09T01:02:32.816Z,0.00
2024-05-09T01:03:32.865Z,0.00
2024-05-09T01:04:32.651Z,0.00
2024-05-09T01:05:32.745Z,0.00
2024-05-09T01:06:32.598Z,0.00
2024-05-09T01:07:32.618Z,0.00
2024-05-09T01:08:32.720Z,0.00
2024-05-09T01:09:32.610Z,0.00
2024-05-09T01:10:35.043Z,0.00
2024-05-09T01:11:32.765Z,0.00
2024-05-09T01:12:32.709Z,0.00
2024-05-09T01:13:32.585Z,0.00
2024-05-09T01:14:32.620Z,0.00
2024-05-09T01:15:32.577Z,0.00
2024-05-09T01:16:32.573Z,0.00
2024-05-09T01:17:32.667Z,0.00
2024-05-09T01:18:32.650Z,0.00
2024-05-09T01:19:32.839Z,0.00
2024-05-09T01:20:40.868Z,0.00
2024-05-09T01:21:32.555Z,0.00
2024-05-09T01:22:32.556Z,0.00
2024-05-09T01:23:32.712Z,0.00
2024-05-09T01:24:32.554Z,0.00
2024-05-09T01:25:32.554Z,0.00
2024-05-09T01:26:32.618Z,0.00
2024-05-09T01:27:32.537Z,0.00
2024-05-09T01:28:32.548Z,0.00
2024-05-09T01:29:32.605Z,0.00
2024-05-09T01:30:35.507Z,0.00
2024-05-09T01:31:32.539Z,0.00
2024-05-09T01:32:32.708Z,0.00
2024-05-09T01:33:32.980Z,0.00
2024-05-09T01:34:32.526Z,0.00
2024-05-09T01:35:32.573Z,0.00
2024-05-09T01:36:32.510Z,0.00
2024-05-09T01:37:32.509Z,0.00
2024-05-09T01:38:32.558Z,0.00
2024-05-09T01:39:32.501Z,0.00
2024-05-09T01:40:38.030Z,0.00
2024-05-09T01:41:32.552Z,0.00
2024-05-09T01:42:32.493Z,0.00
2024-05-09T01:43:32.498Z,0.00
2024-05-09T01:44:32.527Z,0.00
2024-05-09T01:45:32.501Z,0.00
2024-05-09T01:46:32.487Z,0.00
2024-05-09T01:47:32.602Z,0.00
2024-05-09T01:48:32.557Z,0.00
2024-05-09T01:49:32.574Z,0.00
2024-05-09T01:50:38.586Z,0.00
2024-05-09T01:51:32.478Z,0.00
2024-05-09T01:52:32.458Z,0.00
2024-05-09T01:53:32.543Z,0.00
2024-05-09T01:54:32.455Z,0.00
2024-05-09T01:55:32.449Z,0.00
2024-05-09T01:56:32.531Z,0.00
2024-05-09T01:57:32.442Z,0.00
2024-05-09T01:58:32.446Z,0.00
2024-05-09T01:59:32.598Z,0.00
2024-05-09T02:00:38.551Z,0.00
2024-05-09T02:01:55.391Z,0.00
2024-05-09T02:02:32.449Z,0.00
2024-05-09T02:03:32.542Z,0.00
2024-05-09T02:04:32.473Z,0.00
2024-05-09T02:05:32.563Z,0.00
2024-05-09T02:06:32.437Z,0.00
2024-05-09T02:07:32.406Z,0.00
2024-05-09T02:08:32.580Z,0.00
2024-05-09T02:09:32.401Z,0.00
2024-05-09T02:10:33.329Z,0.00
2024-05-09T02:11:32.554Z,0.00
2024-05-09T02:12:32.450Z,0.00
2024-05-09T02:13:32.387Z,0.00
2024-05-09T02:14:32.393Z,0.00
2024-05-09T02:15:32.386Z,0.00
2024-05-09T02:16:32.377Z,0.00
2024-05-09T02:17:32.520Z,0.00
2024-05-09T02:18:32.427Z,0.00
2024-05-09T02:19:32.762Z,0.00
2024-05-09T02:20:36.281Z,0.00
2024-05-09T02:21:32.361Z,0.00
2024-05-09T02:22:32.363Z,0.00
2024-05-09T02:23:32.464Z,0.00
2024-05-09T02:24:32.351Z,0.00
2024-05-09T02:25:32.504Z,0.00
2024-05-09T02:26:32.371Z,0.00
2024-05-09T02:27:32.337Z,0.00
2024-05-09T02:28:32.337Z,0.00
2024-05-09T02:29:32.479Z,0.00
2024-05-09T02:30:39.096Z,0.00
2024-05-09T02:31:32.329Z,0.00
2024-05-09T02:32:32.488Z,0.00
2024-05-09T02:33:32.519Z,0.00
2024-05-09T02:34:32.341Z,0.00
2024-05-09T02:35:32.409Z,0.00
2024-05-09T02:36:32.305Z,0.00
2024-05-09T02:37:32.304Z,0.00
2024-05-09T02:38:32.434Z,0.00
2024-05-09T02:39:32.296Z,0.00
2024-05-09T02:40:37.319Z,0.00
2024-05-09T02:41:32.337Z,0.00
2024-05-09T02:42:32.280Z,0.00
2024-05-09T02:43:32.311Z,0.00
2024-05-09T02:44:32.314Z,0.00
2024-05-09T02:45:32.307Z,0.00
2024-05-09T02:46:32.306Z,0.00
2024-05-09T02:47:32.409Z,4.00
2024-05-09T02:48:32.377Z,4.00
2024-05-09T02:49:32.341Z,0.00
2024-05-09T02:50:37.931Z,0.00
2024-05-09T02:51:32.253Z,4.00
2024-05-09T02:52:32.251Z,4.00
2024-05-09T02:53:32.329Z,4.00
2024-05-09T02:54:32.452Z,4.00
2024-05-09T02:55:32.345Z,8.00
2024-05-09T02:56:32.275Z,4.00
2024-05-09T02:57:32.229Z,8.00
2024-05-09T02:58:32.242Z,8.00
2024-05-09T02:59:32.305Z,8.00
2024-05-09T03:00:38.462Z,8.00
2024-05-09T03:01:32.239Z,12.00
2024-05-09T03:02:32.305Z,12.00
2024-05-09T03:03:32.433Z,16.00
2024-05-09T03:04:32.418Z,20.00
2024-05-09T03:05:32.449Z,20.00
2024-05-09T03:06:32.199Z,24.00
2024-05-09T03:07:32.207Z,24.00
2024-05-09T03:08:32.369Z,28.00
2024-05-09T03:09:32.198Z,32.00
2024-05-09T03:10:35.813Z,36.00
2024-05-09T03:11:32.300Z,40.00
2024-05-09T03:12:32.192Z,48.00
2024-05-09T03:13:32.177Z,48.00
2024-05-09T03:14:32.209Z,56.00
2024-05-09T03:15:32.162Z,64.00
2024-05-09T03:16:32.164Z,72.00
2024-05-09T03:17:32.359Z,80.00
2024-05-09T03:18:32.247Z,84.00
2024-05-09T03:19:32.243Z,92.00
2024-05-09T03:20:34.740Z,100.00
2024-05-09T03:21:32.172Z,112.00
2024-05-09T03:22:32.152Z,120.00
2024-05-09T03:23:32.162Z,128.00
2024-05-09T03:24:32.128Z,140.00
2024-05-09T03:25:32.154Z,152.00
2024-05-09T03:26:32.204Z,164.00
2024-05-09T03:27:32.145Z,176.00
2024-05-09T03:28:32.125Z,188.00
2024-05-09T03:29:32.182Z,200.00
2024-05-09T03:30:39.779Z,216.00
2024-05-09T03:31:32.113Z,228.00
2024-05-09T03:32:32.177Z,240.00
2024-05-09T03:33:32.339Z,256.00
2024-05-09T03:34:32.163Z,272.00
2024-05-09T03:35:32.131Z,288.00
2024-05-09T03:36:32.083Z,300.00
2024-05-09T03:37:32.085Z,320.00
2024-05-09T03:38:32.137Z,336.00
2024-05-09T03:39:32.076Z,352.00
2024-05-09T03:40:32.059Z,368.00
2024-05-09T03:41:32.187Z,388.00
2024-05-09T03:42:32.067Z,404.00
2024-05-09T03:43:32.053Z,424.00
2024-05-09T03:44:32.207Z,444.00
2024-05-09T03:45:32.043Z,460.00
2024-05-09T03:46:32.045Z,480.00
2024-05-09T03:47:32.182Z,496.00
2024-05-09T03:48:32.193Z,516.00
2024-05-09T03:49:32.123Z,532.00
2024-05-09T03:50:35.565Z,552.00
2024-05-09T03:51:32.025Z,568.00
2024-05-09T03:52:32.028Z,592.00
2024-05-09T03:53:32.207Z,608.00
2024-05-09T03:54:32.030Z,632.00
2024-05-09T03:55:32.178Z,652.00
2024-05-09T03:56:32.088Z,668.00
2024-05-09T03:57:32.011Z,688.00
2024-05-09T03:58:31.998Z,708.00
2024-05-09T03:59:32.097Z,728.00
2024-05-09T04:00:37.916Z,748.00
2024-05-09T04:01:32.153Z,764.00
2024-05-09T04:02:32.102Z,788.00
2024-05-09T04:03:32.089Z,804.00
2024-05-09T04:04:32.117Z,824.00
2024-05-09T04:05:32.119Z,848.00
2024-05-09T04:06:31.974Z,864.00
2024-05-09T04:07:31.993Z,888.00
2024-05-09T04:08:31.993Z,904.00
2024-05-09T04:09:31.956Z,924.00
2024-05-09T04:10:34.129Z,944.00
2024-05-09T04:11:32.093Z,964.00
2024-05-09T04:12:32.049Z,984.00
2024-05-09T04:13:31.939Z,1000.00
2024-05-09T04:14:32.003Z,1020.00
2024-05-09T04:15:32.501Z,1044.00
2024-05-09T04:16:31.933Z,1064.00
2024-05-09T04:17:32.124Z,1080.00
2024-05-09T04:18:31.996Z,1104.00
2024-05-09T04:19:31.965Z,1124.00
2024-05-09T04:20:37.948Z,1140.00
2024-05-09T04:21:31.908Z,1164.00
2024-05-09T04:22:31.905Z,1180.00
2024-05-09T04:23:32.039Z,1204.00
2024-05-09T04:24:31.897Z,1220.00
2024-05-09T04:25:31.919Z,1240.00
2024-05-09T04:26:31.950Z,1256.00
2024-05-09T04:27:31.891Z,1272.00
2024-05-09T04:28:31.897Z,1292.00
2024-05-09T04:29:31.992Z,1312.00
2024-05-09T04:30:37.812Z,1332.00
2024-05-09T04:31:31.869Z,1352.00
2024-05-09T04:32:31.971Z,1368.00
2024-05-09T04:33:32.130Z,1392.00
2024-05-09T04:34:31.933Z,1412.00
2024-05-09T04:35:31.971Z,1432.00
2024-05-09T04:36:31.853Z,1448.00
2024-05-09T04:37:31.854Z,1472.00
2024-05-09T04:38:31.948Z,1492.00
2024-05-09T04:39:31.841Z,1516.00
2024-05-09T04:40:35.161Z,1536.00
2024-05-09T04:41:32.018Z,1556.00
2024-05-09T04:42:31.832Z,1576.00
2024-05-09T04:43:31.845Z,1600.00
2024-05-09T04:44:31.916Z,1628.00
2024-05-09T04:45:31.820Z,1648.00
2024-05-09T04:46:31.807Z,1668.00
2024-05-09T04:47:31.870Z,1688.00
2024-05-09T04:48:31.902Z,1708.00
2024-05-09T04:49:31.889Z,1732.00
2024-05-09T04:50:36.715Z,1752.00
2024-05-09T04:51:31.794Z,1776.00
2024-05-09T04:52:31.797Z,1800.00
2024-05-09T04:53:31.972Z,1820.00
2024-05-09T04:54:36.391Z,1848.00
2024-05-09T04:55:31.828Z,1880.00
2024-05-09T04:56:31.853Z,1924.00
2024-05-09T04:57:31.777Z,1976.00
2024-05-09T04:58:31.765Z,2008.00
2024-05-09T04:59:31.891Z,2076.00
2024-05-09T05:00:36.442Z,2136.00
2024-05-09T05:01:31.782Z,2184.00
2024-05-09T05:02:31.832Z,2252.00
2024-05-09T05:03:32.114Z,2296.00
2024-05-09T05:04:31.809Z,2336.00
2024-05-09T05:05:31.832Z,2364.00
2024-05-09T05:06:31.735Z,2404.00
2024-05-09T05:07:31.741Z,2436.00
2024-05-09T05:08:31.949Z,2464.00
2024-05-09T05:09:31.735Z,2492.00
2024-05-09T05:10:35.927Z,2524.00
2024-05-09T05:11:31.768Z,2556.00
2024-05-09T05:12:31.824Z,2576.00
2024-05-09T05:13:31.713Z,2596.00
2024-05-09T05:14:31.757Z,2572.00
2024-05-09T05:15:31.704Z,2564.00
2024-05-09T05:16:31.705Z,2528.00
2024-05-09T05:17:31.873Z,2476.00
2024-05-09T05:18:31.730Z,2444.00
2024-05-09T05:19:31.824Z,2428.00
2024-05-09T05:20:33.816Z,2448.00
2024-05-09T05:21:31.699Z,2504.00
2024-05-09T05:22:31.693Z,2596.00
2024-05-09T05:23:31.737Z,2588.00
2024-05-09T05:24:31.677Z,2696.00
2024-05-09T05:25:31.671Z,2820.00
2024-05-09T05:26:31.796Z,2916.00
2024-05-09T05:27:31.656Z,2972.00
2024-05-09T05:28:31.663Z,3060.00
2024-05-09T05:29:31.673Z,3124.00
2024-05-09T05:30:34.637Z,3476.00
2024-05-09T05:31:31.667Z,4280.00
2024-05-09T05:32:31.834Z,4816.00
2024-05-09T05:33:31.924Z,5296.00
2024-05-09T05:34:31.642Z,10904.00
2024-05-09T05:35:31.805Z,32896.00
2024-05-09T05:36:31.637Z,55392.00
2024-05-09T05:37:31.630Z,65088.00
2024-05-09T05:38:31.652Z,66624.00
2024-05-09T05:39:31.630Z,66080.00
2024-05-09T05:40:36.532Z,67712.00
2024-05-09T05:41:31.693Z,70496.00
2024-05-09T05:42:31.617Z,73088.00
2024-05-09T05:43:31.611Z,78560.00
2024-05-09T05:44:31.751Z,80800.00
2024-05-09T05:45:31.623Z,79296.00
2024-05-09T05:46:31.623Z,78816.00
2024-05-09T05:47:31.688Z,78496.00
2024-05-09T05:48:31.739Z,76192.00
2024-05-09T05:49:31.677Z,75680.00
2024-05-09T05:50:35.677Z,72864.00
2024-05-09T05:51:31.641Z,71296.00
2024-05-09T05:52:31.640Z,58080.00
2024-05-09T05:53:31.694Z,45472.00
2024-05-09T05:54:31.654Z,45600.00
2024-05-09T05:55:31.664Z,56384.00
2024-05-09T05:56:31.727Z,66240.00
2024-05-09T05:57:31.662Z,76160.00
2024-05-09T05:58:31.666Z,83168.00
2024-05-09T05:59:31.845Z,85696.00
2024-05-09T06:00:37.931Z,79136.00
2024-05-09T06:01:31.755Z,78336.00
2024-05-09T06:02:31.833Z,81184.00
2024-05-09T06:03:31.875Z,83136.00
2024-05-09T06:04:31.739Z,76352.00
2024-05-09T06:05:31.795Z,64800.00
2024-05-09T06:06:31.721Z,84384.00
2024-05-09T06:07:31.727Z,84800.00
2024-05-09T06:08:31.818Z,84576.00
2024-05-09T06:09:31.743Z,84896.00
2024-05-09T06:10:37.849Z,82944.00
2024-05-09T06:11:31.955Z,82080.00
2024-05-09T06:12:31.773Z,82368.00
2024-05-09T06:13:31.777Z,86080.00
2024-05-09T06:14:31.828Z,80576.00
2024-05-09T06:15:31.806Z,82048.00
2024-05-09T06:16:31.801Z,83840.00
2024-05-09T06:17:31.991Z,82272.00
2024-05-09T06:18:32.131Z,78560.00
2024-05-09T06:19:32.005Z,81856.00
2024-05-09T06:20:36.175Z,83040.00
2024-05-09T06:21:31.863Z,88288.00
2024-05-09T06:22:31.863Z,89376.00
2024-05-09T06:23:31.958Z,86784.00
2024-05-09T06:24:31.888Z,86048.00
2024-05-09T06:25:31.986Z,83104.00
2024-05-09T06:26:31.981Z,81280.00
2024-05-09T06:27:31.914Z,79136.00
2024-05-09T06:28:31.932Z,74112.00
2024-05-09T06:29:31.964Z,65952.00
2024-05-09T06:30:38.347Z,67456.00
2024-05-09T06:31:31.981Z,76320.00
2024-05-09T06:32:32.122Z,78016.00
2024-05-09T06:33:32.194Z,81056.00
2024-05-09T06:34:32.049Z,80384.00
2024-05-09T06:35:32.068Z,80576.00
2024-05-09T06:36:32.021Z,79040.00
2024-05-09T06:37:32.031Z,77920.00
2024-05-09T06:38:32.071Z,78464.00
2024-05-09T06:39:32.052Z,76672.00
2024-05-09T06:40:37.459Z,80160.00
2024-05-09T06:41:32.167Z,80896.00
2024-05-09T06:42:32.092Z,76928.00
2024-05-09T06:43:32.107Z,78752.00
2024-05-09T06:44:32.179Z,86240.00
2024-05-09T06:45:32.138Z,87264.00
2024-05-09T06:46:32.144Z,86112.00
2024-05-09T06:47:32.354Z,81664.00
2024-05-09T06:48:32.299Z,79232.00
2024-05-09T06:49:32.299Z,84480.00
2024-05-09T06:50:37.481Z,87488.00
2024-05-09T06:51:32.202Z,84768.00
2024-05-09T06:52:32.226Z,85344.00
2024-05-09T06:53:32.392Z,88256.00
2024-05-09T06:54:32.250Z,86752.00
2024-05-09T06:55:32.257Z,82560.00
2024-05-09T06:56:32.327Z,78464.00
2024-05-09T06:57:32.274Z,82912.00
2024-05-09T06:58:32.306Z,89632.00
2024-05-09T06:59:32.395Z,86400.00
2024-05-09T07:00:38.613Z,84160.00
2024-05-09T07:01:32.395Z,84480.00
2024-05-09T07:02:32.451Z,85792.00
2024-05-09T07:03:32.459Z,85024.00
2024-05-09T07:04:32.482Z,85728.00
2024-05-09T07:05:32.442Z,83904.00
2024-05-09T07:06:32.405Z,84864.00
2024-05-09T07:07:32.414Z,87040.00
2024-05-09T07:08:32.530Z,89984.00
2024-05-09T07:09:32.455Z,90144.00
2024-05-09T07:10:35.307Z,87712.00
2024-05-09T07:11:32.556Z,88224.00
2024-05-09T07:12:32.756Z,86528.00
2024-05-09T07:13:32.499Z,84736.00
2024-05-09T07:14:33.979Z,77408.00
2024-05-09T07:15:32.527Z,82912.00
2024-05-09T07:16:32.562Z,92000.00
2024-05-09T07:17:32.704Z,93952.00
2024-05-09T07:18:32.698Z,92864.00
2024-05-09T07:19:32.677Z,91936.00
2024-05-09T07:20:34.957Z,89856.00
2024-05-09T07:21:32.634Z,88896.00
2024-05-09T07:22:32.630Z,86720.00
2024-05-09T07:23:32.773Z,84864.00
2024-05-09T07:24:32.662Z,86368.00
2024-05-09T07:25:32.682Z,86464.00
2024-05-09T07:26:32.766Z,89120.00
2024-05-09T07:27:32.706Z,88448.00
2024-05-09T07:28:32.717Z,85056.00
2024-05-09T07:29:34.757Z,87136.00
2024-05-09T07:30:34.537Z,88736.00
2024-05-09T07:31:32.862Z,84960.00
2024-05-09T07:32:32.919Z,84352.00
2024-05-09T07:33:32.869Z,88000.00
2024-05-09T07:34:32.860Z,91616.00
2024-05-09T07:35:33.199Z,91168.00
2024-05-09T07:36:32.837Z,91744.00
2024-05-09T07:37:32.853Z,93280.00
2024-05-09T07:38:32.904Z,93312.00
2024-05-09T07:39:32.883Z,86848.00
2024-05-09T07:40:36.366Z,87008.00
2024-05-09T07:41:33.017Z,89184.00
2024-05-09T07:42:32.932Z,86848.00
2024-05-09T07:43:32.950Z,84672.00
2024-05-09T07:44:33.220Z,85824.00
2024-05-09T07:50:33.320Z,82944.00
2024-05-09T07:52:23.418Z,87264.00
2024-05-09T07:53:08.902Z,89216.00
2024-05-09T07:53:33.039Z,86240.00
2024-05-09T07:53:40.923Z,82592.00
2024-05-09T07:54:33.273Z,82016.00
2024-05-09T07:55:33.378Z,79680.00
2024-05-09T07:56:33.294Z,77472.00
2024-05-09T07:57:33.220Z,75200.00
2024-05-09T07:58:33.179Z,53984.00
2024-05-09T07:59:37.168Z,27904.00
2024-05-09T08:00:33.438Z,23200.00
2024-05-09T08:01:33.323Z,20512.00
2024-05-09T08:02:33.389Z,18976.00
2024-05-09T08:03:33.499Z,17920.00
2024-05-09T08:04:33.382Z,16896.00
2024-05-09T08:05:33.518Z,16032.00
2024-05-09T08:06:33.310Z,15296.00
2024-05-09T08:07:33.316Z,14448.00
2024-05-09T08:08:33.353Z,13680.00
2024-05-09T08:09:34.652Z,13320.00
2024-05-09T08:10:33.362Z,12628.00
2024-05-09T08:11:33.407Z,11944.00
2024-05-09T08:12:33.416Z,11684.00
2024-05-09T08:13:33.384Z,11200.00
2024-05-09T08:14:33.407Z,10752.00
2024-05-09T08:15:33.467Z,10328.00
2024-05-09T08:16:33.498Z,9936.00
2024-05-09T08:17:33.507Z,9616.00
2024-05-09T08:18:33.732Z,9252.00
2024-05-09T08:19:33.518Z,8948.00
2024-05-09T08:20:35.318Z,8648.00
2024-05-09T08:21:33.531Z,8384.00
2024-05-09T08:22:33.494Z,8140.00
2024-05-09T08:23:33.489Z,7896.00
2024-05-09T08:24:33.537Z,7640.00
2024-05-09T08:25:33.521Z,7452.00
2024-05-09T08:26:33.522Z,7264.00
2024-05-09T08:27:33.562Z,7100.00
2024-05-09T08:28:33.541Z,6952.00
2024-05-09T08:29:33.562Z,6832.00
2024-05-09T08:30:37.147Z,6716.00
2024-05-09T08:31:33.654Z,6608.00
2024-05-09T08:32:33.592Z,6520.00
2024-05-09T08:33:33.896Z,6432.00
2024-05-09T08:34:33.653Z,6376.00
2024-05-09T08:35:33.644Z,6328.00
2024-05-09T08:36:33.606Z,6284.00
2024-05-09T08:37:38.687Z,6224.00
2024-05-09T08:38:33.621Z,6152.00
2024-05-09T08:39:33.663Z,6088.00
2024-05-09T08:40:36.141Z,5940.00
2024-05-09T08:41:33.621Z,5800.00
2024-05-09T08:42:33.679Z,5692.00
2024-05-09T08:43:33.632Z,5544.00
2024-05-09T08:44:33.632Z,5448.00
2024-05-09T08:45:33.713Z,5332.00
2024-05-09T08:46:33.744Z,5232.00
2024-05-09T08:47:33.746Z,5156.00
2024-05-09T08:48:33.816Z,5052.00
2024-05-09T08:49:33.720Z,4984.00
2024-05-09T08:50:38.550Z,4900.00
2024-05-09T08:51:33.709Z,4800.00
2024-05-09T08:52:33.671Z,4704.00
2024-05-09T08:53:33.678Z,4668.00
2024-05-09T08:54:33.751Z,4664.00
2024-05-09T08:55:33.688Z,4592.00
2024-05-09T08:56:33.691Z,4560.00
2024-05-09T08:57:33.735Z,4508.00
2024-05-09T08:58:33.699Z,4456.00
2024-05-09T08:59:33.707Z,4384.00
2024-05-09T09:00:37.129Z,4340.00
2024-05-09T09:01:33.782Z,4304.00
2024-05-09T09:02:33.873Z,4268.00
2024-05-09T09:03:34.234Z,4236.00
2024-05-09T09:04:33.806Z,4208.00
2024-05-09T09:05:34.039Z,4164.00
2024-05-09T09:06:33.755Z,4132.00
2024-05-09T09:07:33.773Z,4096.00
2024-05-09T09:08:33.769Z,4048.00
2024-05-09T09:09:33.784Z,4016.00
2024-05-09T09:10:34.004Z,3988.00
2024-05-09T09:11:33.805Z,3952.00
2024-05-09T09:12:33.814Z,3928.00
2024-05-09T09:13:33.764Z,3900.00
2024-05-09T09:14:33.763Z,3872.00
2024-05-09T09:15:33.783Z,3840.00
2024-05-09T09:16:33.780Z,3808.00
2024-05-09T09:17:33.886Z,3776.00
2024-05-09T09:18:33.940Z,3756.00
2024-05-09T09:19:33.853Z,3744.00
2024-05-09T09:20:36.676Z,3700.00
2024-05-09T09:21:33.838Z,3664.00
2024-05-09T09:22:33.791Z,3616.00
2024-05-09T09:23:33.787Z,3572.00
2024-05-09T09:24:33.866Z,3540.00
2024-05-09T09:25:33.814Z,3516.00
2024-05-09T09:26:33.794Z,3484.00
2024-05-09T09:27:33.818Z,3452.00
2024-05-09T09:28:33.801Z,3416.00
2024-05-09T09:29:33.809Z,3372.00
2024-05-09T09:30:37.415Z,3356.00
2024-05-09T09:31:34.063Z,3332.00
2024-05-09T09:32:33.883Z,3340.00
2024-05-09T09:33:34.115Z,3328.00
2024-05-09T09:34:33.882Z,3308.00
2024-05-09T09:35:33.855Z,3296.00
2024-05-09T09:36:33.867Z,3276.00
2024-05-09T09:37:33.827Z,3256.00
2024-05-09T09:38:33.829Z,3220.00
2024-05-09T09:39:33.875Z,3196.00
2024-05-09T09:40:36.001Z,3176.00
2024-05-09T09:41:33.853Z,3160.00
2024-05-09T09:42:33.866Z,3136.00
2024-05-09T09:43:33.836Z,3112.00
2024-05-09T09:44:34.230Z,3096.00
2024-05-09T09:45:33.946Z,3080.00
2024-05-09T09:46:33.947Z,3064.00
2024-05-09T09:47:33.960Z,3056.00
2024-05-09T09:48:34.088Z,3024.00
2024-05-09T09:49:33.966Z,3000.00
2024-05-09T09:50:35.079Z,2996.00
2024-05-09T09:51:33.906Z,2980.00
2024-05-09T09:52:33.934Z,2976.00
2024-05-09T09:53:33.874Z,2952.00
2024-05-09T09:54:33.974Z,2928.00
2024-05-09T09:55:33.899Z,2924.00
2024-05-09T09:56:33.881Z,2912.00
2024-05-09T09:57:33.940Z,2900.00
2024-05-09T09:58:33.949Z,2896.00
2024-05-09T09:59:33.883Z,2876.00
2024-05-09T10:00:34.295Z,2860.00
2024-05-09T10:01:34.048Z,2856.00
2024-05-09T10:02:33.982Z,2844.00
2024-05-09T10:03:34.174Z,2832.00
2024-05-09T10:04:34.029Z,2828.00
2024-05-09T10:05:34.269Z,2812.00
2024-05-09T10:06:33.982Z,2808.00
2024-05-09T10:07:33.896Z,2800.00
2024-05-09T10:08:33.906Z,2792.00
2024-05-09T10:09:33.966Z,2792.00
2024-05-09T10:10:34.349Z,2780.00
2024-05-09T10:11:41.669Z,2772.00
2024-05-09T10:12:34.122Z,2776.00
2024-05-09T10:13:34.012Z,2760.00
2024-05-09T10:14:33.915Z,2764.00
2024-05-09T10:15:33.962Z,2760.00
2024-05-09T10:16:33.980Z,2752.00
2024-05-09T10:17:34.094Z,2744.00
2024-05-09T10:18:34.560Z,2736.00
2024-05-09T10:19:34.156Z,2724.00
2024-05-09T10:20:33.986Z,2716.00
2024-05-09T10:21:34.004Z,2688.00
2024-05-09T10:22:33.967Z,2672.00
2024-05-09T10:23:33.944Z,2664.00
2024-05-09T10:24:33.992Z,2652.00
2024-05-09T10:25:33.940Z,2648.00
2024-05-09T10:26:34.019Z,2644.00
2024-05-09T10:27:33.986Z,2628.00
2024-05-09T10:28:33.974Z,2616.00
2024-05-09T10:29:33.955Z,2616.00
2024-05-09T10:30:36.273Z,2604.00
2024-05-09T10:31:34.032Z,2592.00
2024-05-09T10:32:34.025Z,2596.00
2024-05-09T10:33:34.125Z,2576.00
2024-05-09T10:34:34.101Z,2556.00
2024-05-09T10:35:33.950Z,2580.00
2024-05-09T10:36:33.993Z,2560.00
2024-05-09T10:37:33.999Z,2572.00
2024-05-09T10:38:33.967Z,2552.00
2024-05-09T10:39:33.974Z,2536.00
2024-05-09T10:40:34.030Z,2544.00
2024-05-09T10:41:33.972Z,2556.00
2024-05-09T10:42:33.989Z,2560.00
2024-05-09T10:43:33.981Z,2556.00
2024-05-09T10:44:33.981Z,2548.00
2024-05-09T10:45:34.000Z,2532.00
2024-05-09T10:46:33.968Z,2516.00
2024-05-09T10:47:34.066Z,2488.00
2024-05-09T10:48:34.102Z,2504.00
2024-05-09T10:49:34.011Z,2496.00
2024-05-09T10:50:34.677Z,2488.00
2024-05-09T10:51:34.018Z,2484.00
2024-05-09T10:52:33.977Z,2480.00
2024-05-09T10:53:33.987Z,2468.00
2024-05-09T10:54:34.038Z,2448.00
2024-05-09T10:55:34.019Z,2436.00
2024-05-09T10:56:33.987Z,2424.00
2024-05-09T10:57:34.016Z,2416.00
2024-05-09T10:58:34.004Z,2408.00
2024-05-09T10:59:33.997Z,2392.00
2024-05-09T11:00:36.311Z,2388.00
2024-05-09T11:01:34.130Z,2380.00
2024-05-09T11:02:34.059Z,2372.00
2024-05-09T11:03:34.372Z,2356.00
2024-05-09T11:04:34.137Z,2344.00
2024-05-09T11:05:34.161Z,2328.00
2024-05-09T11:06:34.038Z,2320.00
2024-05-09T11:07:34.102Z,2308.00
2024-05-09T11:08:34.034Z,2300.00
2024-05-09T11:09:34.038Z,2288.00
2024-05-09T11:10:34.743Z,2276.00
2024-05-09T11:11:34.075Z,2272.00
2024-05-09T11:12:34.038Z,2264.00
2024-05-09T11:13:34.011Z,2252.00
2024-05-09T11:14:34.016Z,2252.00
2024-05-09T11:15:34.038Z,2240.00
2024-05-09T11:16:34.032Z,2236.00
2024-05-09T11:17:34.154Z,2236.00
2024-05-09T11:18:37.807Z,2232.00
2024-05-09T11:19:34.064Z,2240.00
2024-05-09T11:20:35.331Z,2236.00
2024-05-09T11:21:34.049Z,2232.00
2024-05-09T11:22:34.035Z,2240.00
2024-05-09T11:23:34.023Z,2244.00
2024-05-09T11:24:34.044Z,2244.00
2024-05-09T11:25:34.028Z,2248.00
2024-05-09T11:26:34.027Z,2244.00
2024-05-09T11:27:34.054Z,2244.00
2024-05-09T11:28:34.048Z,2256.00
2024-05-09T11:29:34.032Z,2268.00
2024-05-09T11:30:34.097Z,2272.00
2024-05-09T11:31:34.186Z,2284.00
2024-05-09T11:32:34.141Z,2292.00
2024-05-09T11:33:34.116Z,2304.00
2024-05-09T11:34:34.116Z,2312.00
2024-05-09T11:35:34.050Z,2320.00
2024-05-09T11:36:34.079Z,2332.00
2024-05-09T11:37:36.838Z,2344.00
2024-05-09T11:38:34.082Z,2356.00
2024-05-09T11:39:34.071Z,2360.00
2024-05-09T11:40:34.793Z,2380.00
2024-05-09T11:41:34.051Z,2384.00
2024-05-09T11:42:34.323Z,2404.00
2024-05-09T11:43:34.116Z,2416.00
2024-05-09T11:44:34.107Z,2428.00
2024-05-09T11:45:34.221Z,2436.00
2024-05-09T11:46:34.061Z,2448.00
2024-05-09T11:47:34.153Z,2464.00
2024-05-09T11:48:34.376Z,2484.00
2024-05-09T11:49:34.144Z,2504.00
2024-05-09T11:50:35.964Z,2516.00
2024-05-09T11:51:34.128Z,2532.00
2024-05-09T11:52:34.062Z,2560.00
2024-05-09T11:53:34.088Z,2560.00
2024-05-09T11:54:34.125Z,2568.00
2024-05-09T11:55:34.138Z,2580.00
2024-05-09T11:56:34.062Z,2592.00
2024-05-09T11:57:34.080Z,2600.00
2024-05-09T11:58:34.109Z,2604.00
2024-05-09T11:59:34.078Z,2616.00
2024-05-09T12:01:34.225Z,2636.00
2024-05-09T12:02:34.282Z,2676.00
2024-05-09T12:03:34.189Z,2664.00
2024-05-09T12:04:34.208Z,2668.00
2024-05-09T12:05:34.629Z,2676.00
2024-05-09T12:06:34.151Z,2672.00
2024-05-09T12:07:34.093Z,2676.00
2024-05-09T12:08:34.093Z,2688.00
2024-05-09T12:09:34.125Z,2692.00
2024-05-09T12:10:36.012Z,2700.00
2024-05-09T12:11:34.275Z,2712.00
2024-05-09T12:12:36.728Z,2712.00
2024-05-09T12:13:34.121Z,2708.00
2024-05-09T12:14:34.087Z,2716.00
2024-05-09T12:15:34.128Z,2708.00
2024-05-09T12:16:34.210Z,2708.00
2024-05-09T12:17:34.205Z,2716.00
2024-05-09T12:18:34.252Z,2716.00
2024-05-09T12:19:34.132Z,2716.00
2024-05-09T12:20:37.851Z,2720.00
2024-05-09T12:21:34.213Z,2720.00
2024-05-09T12:22:34.122Z,2712.00
2024-05-09T12:23:34.110Z,2716.00
2024-05-09T12:24:34.187Z,2716.00
2024-05-09T12:25:34.109Z,2720.00
2024-05-09T12:26:34.105Z,2716.00